Leonidas, Michigan
Current Conditions -  °F | °C
As of 12:15 AM on Sunday 26 Oct 2014 (Local Time) from KHAI Reporting Station
Clear Clear  
Wind Chill: 56°   Ceiling: Unl
Heat Index: 56°   Visibility: 10mi
Dew Point: 32°   Wind: 9mph
Humidity: 41%   Direction: 310°NW
Pressure: 29.91"   Gusts: NA
Location:  42.02°N, 85.35°W
Report Text: KHAI 260415Z AUTO 31008KT 10SM CLR 13/00 A2991 RMK AO2 T01310000
Loading
Personal Weather Stations






























Interactive Weather Map
Tropical Storm Tracking
New forecast layout! Learn more

10-Day Weather Forecast

Advertisements
Track Severe Weather on mobile